createdAt,value
2018-12-17T00:00:22.076Z,99717.78
2018-12-17T00:02:56.714Z,99716.34
2018-12-17T00:05:41.871Z,99710.38
2018-12-17T00:08:20.197Z,99706.70
2018-12-17T00:10:52.813Z,99712.34
2018-12-17T00:13:25.385Z,99709.92
2018-12-17T00:15:58.069Z,99712.11
2018-12-17T00:18:30.610Z,99707.95
2018-12-17T00:21:03.203Z,99700.66
2018-12-17T00:23:35.830Z,99697.72
2018-12-17T00:26:08.405Z,99698.47
2018-12-17T00:28:40.986Z,99698.01
2018-12-17T00:31:13.529Z,99700.17
2018-12-17T00:33:46.363Z,99698.03
2018-12-17T00:36:19.307Z,99697.89
2018-12-17T00:38:52.629Z,99697.67
2018-12-17T00:41:25.218Z,99704.28
2018-12-17T00:43:58.343Z,99703.91
2018-12-17T00:46:32.263Z,99706.95
2018-12-17T00:49:04.777Z,99701.06
2018-12-17T00:51:37.373Z,99710.84
2018-12-17T00:54:09.947Z,99710.69
2018-12-17T00:56:42.493Z,99712.31
2018-12-17T00:59:15.688Z,99710.98
2018-12-17T01:01:48.884Z,99709.70
2018-12-17T01:04:22.238Z,99705.25
2018-12-17T01:06:54.840Z,99704.73
2018-12-17T01:09:27.473Z,99713.91
2018-12-17T01:12:00.949Z,99715.97
2018-12-17T01:14:33.556Z,99724.49
2018-12-17T01:17:06.119Z,99725.97
2018-12-17T01:19:38.713Z,99726.58
2018-12-17T01:22:11.319Z,99727.48
2018-12-17T01:24:44.931Z,99729.63
2018-12-17T01:27:17.489Z,99739.72
2018-12-17T01:29:50.215Z,99734.61
2018-12-17T01:32:23.582Z,99740.86
2018-12-17T01:34:56.251Z,99743.59
2018-12-17T01:37:28.815Z,99738.18
2018-12-17T01:40:02.051Z,99743.00
2018-12-17T01:42:35.843Z,99749.07
2018-12-17T01:45:09.543Z,99754.80
2018-12-17T01:47:42.165Z,99753.72
2018-12-17T01:50:15.429Z,99755.80
2018-12-17T01:52:48.001Z,99756.99
2018-12-17T01:55:20.803Z,99752.27
2018-12-17T01:57:53.427Z,99756.14
2018-12-17T02:00:26.082Z,99762.47
2018-12-17T02:02:58.639Z,99761.22
2018-12-17T02:05:31.183Z,99758.05
2018-12-17T02:08:04.784Z,99755.59
2018-12-17T02:10:38.090Z,99755.55
2018-12-17T02:13:10.746Z,99754.41
2018-12-17T02:15:43.326Z,99749.30
2018-12-17T02:18:15.920Z,99748.93
2018-12-17T02:20:48.588Z,99748.25
2018-12-17T02:23:21.163Z,99747.55
2018-12-17T02:25:53.737Z,99748.56
2018-12-17T02:28:26.362Z,99751.24
2018-12-17T02:30:58.893Z,99752.84
2018-12-17T02:33:31.435Z,99753.16
2018-12-17T02:36:04.186Z,99751.04
2018-12-17T02:38:36.895Z,99756.03
2018-12-17T02:41:09.517Z,99760.33
2018-12-17T02:43:42.126Z,99757.80
2018-12-17T02:46:14.737Z,99757.48
2018-12-17T02:48:47.488Z,99754.83
2018-12-17T02:51:20.194Z,99753.58
2018-12-17T02:53:52.855Z,99762.61
2018-12-17T02:56:25.406Z,99766.58
2018-12-17T02:58:58.003Z,99766.84
2018-12-17T03:01:30.539Z,99766.13
2018-12-17T03:04:03.178Z,99764.39
2018-12-17T03:06:36.973Z,99773.33
2018-12-17T03:09:10.115Z,99782.45
2018-12-17T03:11:44.942Z,99781.00
2018-12-17T03:14:17.609Z,99775.45
2018-12-17T03:16:50.297Z,99776.87
2018-12-17T03:19:22.865Z,99777.23
2018-12-17T03:21:55.450Z,99773.95
2018-12-17T03:24:28.073Z,99777.73
2018-12-17T03:27:00.793Z,99777.73
2018-12-17T03:29:33.361Z,99783.33
2018-12-17T03:32:06.528Z,99787.80
2018-12-17T03:34:39.172Z,99794.52
2018-12-17T03:37:13.077Z,99791.97
2018-12-17T03:39:45.652Z,99790.23
2018-12-17T03:42:18.962Z,99791.94
2018-12-17T03:44:51.594Z,99795.16
2018-12-17T03:47:24.216Z,99796.63
2018-12-17T03:49:59.049Z,99797.97
2018-12-17T03:52:31.918Z,99792.70
2018-12-17T03:55:05.093Z,99798.56
2018-12-17T03:57:37.663Z,99804.30
2018-12-17T04:00:10.343Z,99799.53
2018-12-17T04:02:43.364Z,99796.36
2018-12-17T04:05:15.938Z,99796.13
2018-12-17T04:07:48.495Z,99801.91
2018-12-17T04:10:26.364Z,99800.38
2018-12-17T04:12:58.967Z,99803.55
2018-12-17T04:15:31.815Z,99805.25
2018-12-17T04:18:04.383Z,99788.51
2018-12-17T04:20:37.031Z,99791.85
2018-12-17T04:23:10.961Z,99795.45
2018-12-17T04:25:45.401Z,99796.12
2018-12-17T04:28:18.597Z,99805.23
2018-12-17T04:30:51.151Z,99804.21
2018-12-17T04:33:23.793Z,99809.33
2018-12-17T04:35:56.973Z,99816.80
2018-12-17T04:38:29.572Z,99823.77
2018-12-17T04:41:02.132Z,99824.61
2018-12-17T04:43:34.826Z,99821.58
2018-12-17T04:46:07.901Z,99821.26
2018-12-17T04:48:40.483Z,99824.13
2018-12-17T04:51:13.113Z,99823.02
2018-12-17T04:53:48.244Z,99822.97
2018-12-17T04:56:20.810Z,99824.35
2018-12-17T04:58:57.114Z,99822.84
2018-12-17T05:01:31.739Z,99819.48
2018-12-17T05:04:06.804Z,99828.77
2018-12-17T05:06:39.549Z,99827.25
2018-12-17T05:09:12.289Z,99822.97
2018-12-17T05:11:44.915Z,99824.08
2018-12-17T05:14:19.354Z,99832.87
2018-12-17T05:16:52.049Z,99835.56
2018-12-17T05:19:25.768Z,99840.16
2018-12-17T05:21:59.872Z,99834.61
2018-12-17T05:24:32.449Z,99833.46
2018-12-17T05:27:05.601Z,99834.48
2018-12-17T05:29:39.330Z,99836.01
2018-12-17T05:32:15.875Z,99842.66
2018-12-17T05:34:48.510Z,99838.51
2018-12-17T05:37:23.022Z,99848.02
2018-12-17T05:39:55.753Z,99862.98
2018-12-17T05:42:28.348Z,99861.64
2018-12-17T05:45:02.088Z,99862.27
2018-12-17T05:47:35.392Z,99870.00
2018-12-17T05:50:08.106Z,99866.28
2018-12-17T05:52:40.742Z,99868.03
2018-12-17T05:55:13.577Z,99868.16
2018-12-17T05:57:46.728Z,99866.65
2018-12-17T06:00:19.400Z,99873.70
2018-12-17T06:02:51.993Z,99872.55
2018-12-17T06:05:29.775Z,99877.50
2018-12-17T06:08:02.379Z,99884.30
2018-12-17T06:10:38.515Z,99874.02
2018-12-17T06:13:11.101Z,99878.66
2018-12-17T06:15:45.378Z,99881.08
2018-12-17T06:18:18.671Z,99879.50
2018-12-17T06:20:52.590Z,99880.05
2018-12-17T06:23:26.907Z,99877.67
2018-12-17T06:25:59.478Z,99877.72
2018-12-17T06:28:33.685Z,99880.17
2018-12-17T06:31:08.093Z,99877.49
2018-12-17T06:33:40.680Z,99885.53
2018-12-17T06:36:13.981Z,99883.44
2018-12-17T06:38:47.658Z,99891.17
2018-12-17T06:41:20.203Z,99896.66
2018-12-17T06:43:52.837Z,99903.90
2018-12-17T06:46:26.071Z,99900.67
2018-12-17T06:48:58.701Z,99894.05
2018-12-17T06:51:32.177Z,99905.30
2018-12-17T06:54:06.388Z,99912.31
2018-12-17T06:56:39.058Z,99917.55
2018-12-17T06:59:11.649Z,99922.95
2018-12-17T07:01:45.002Z,99925.81
2018-12-17T07:04:18.570Z,99925.32
2018-12-17T07:06:51.130Z,99924.28
2018-12-17T07:09:23.789Z,99926.66
2018-12-17T07:11:56.455Z,99924.28
2018-12-17T07:14:36.294Z,99931.55
2018-12-17T07:17:04.630Z,99935.08
2018-12-17T07:19:37.260Z,99943.66
2018-12-17T07:22:09.870Z,99946.56
2018-12-17T07:24:43.400Z,99939.45
2018-12-17T07:27:15.932Z,99936.02
2018-12-17T07:29:49.965Z,99934.14
2018-12-17T07:32:22.967Z,99924.27
2018-12-17T07:34:56.428Z,99943.81
2018-12-17T07:37:29.218Z,99946.73
2018-12-17T07:40:01.791Z,99951.01
2018-12-17T07:42:34.638Z,99949.41
2018-12-17T07:45:07.498Z,99945.65
2018-12-17T07:47:40.255Z,99946.73
2018-12-17T07:50:12.836Z,99948.56
2018-12-17T07:52:45.573Z,99952.53
2018-12-17T07:55:18.194Z,99968.30
2018-12-17T07:57:51.018Z,99973.66
2018-12-17T08:00:25.065Z,99980.86
2018-12-17T08:02:57.659Z,99979.02
2018-12-17T08:05:30.420Z,99978.52
2018-12-17T08:08:04.238Z,99988.55
2018-12-17T08:10:37.631Z,99989.39
2018-12-17T08:13:10.465Z,99991.30
2018-12-17T08:15:42.991Z,99993.14
2018-12-17T08:18:24.091Z,99990.45
2018-12-17T08:20:56.773Z,99997.62
2018-12-17T08:23:29.336Z,100001.37
2018-12-17T08:26:02.006Z,100005.08
2018-12-17T08:28:37.078Z,100007.41
2018-12-17T08:31:09.623Z,100014.49
2018-12-17T08:33:42.189Z,100016.02
2018-12-17T08:36:14.809Z,100015.44
2018-12-17T08:38:48.531Z,100016.73
2018-12-17T08:41:21.093Z,100012.02
2018-12-17T08:43:55.546Z,100010.27
2018-12-17T08:46:28.241Z,100013.87
2018-12-17T08:49:00.866Z,100017.72
2018-12-17T08:51:33.518Z,100028.26
2018-12-17T08:54:06.099Z,100028.72
2018-12-17T08:56:38.792Z,100028.72
2018-12-17T08:59:11.381Z,100029.56
2018-12-17T09:01:45.346Z,100030.30
2018-12-17T09:04:18.638Z,100036.77
2018-12-17T09:06:51.275Z,100042.12
2018-12-17T09:09:24.066Z,100046.41
2018-12-17T09:11:56.778Z,100052.69
2018-12-17T09:14:30.273Z,100055.60
2018-12-17T09:17:03.021Z,100054.45
2018-12-17T09:19:35.777Z,100065.94
2018-12-17T09:22:09.478Z,100058.28
2018-12-17T09:24:41.998Z,100056.91
2018-12-17T09:27:14.744Z,100062.27
2018-12-17T09:29:47.392Z,100056.91
2018-12-17T09:32:19.992Z,100063.32
2018-12-17T09:34:52.553Z,100058.66
2018-12-17T09:37:25.212Z,100061.98
2018-12-17T09:39:58.524Z,100068.56
2018-12-17T09:42:31.134Z,100069.55
2018-12-17T09:45:05.319Z,100066.56
2018-12-17T09:47:37.986Z,100067.86
2018-12-17T09:50:10.583Z,100065.86
2018-12-17T09:52:43.219Z,100061.31
2018-12-17T09:55:15.866Z,100059.14
2018-12-17T09:57:49.456Z,100063.16
2018-12-17T10:00:25.418Z,100059.05
2018-12-17T10:02:56.740Z,100053.82
2018-12-17T10:05:29.511Z,100045.33
2018-12-17T10:08:02.407Z,100049.80
2018-12-17T10:10:35.038Z,100053.52
2018-12-17T10:13:07.685Z,100054.23
2018-12-17T10:15:40.382Z,100057.09
2018-12-17T10:18:13.317Z,100050.87
2018-12-17T10:20:46.192Z,100052.97
2018-12-17T10:23:19.408Z,100049.62
2018-12-17T10:25:51.993Z,100047.78
2018-12-17T10:28:25.127Z,100048.14
2018-12-17T10:30:57.882Z,100049.10
2018-12-17T10:33:30.463Z,100050.72
2018-12-17T10:36:03.113Z,100051.49
2018-12-17T10:38:35.779Z,100051.69
2018-12-17T10:41:08.365Z,100056.55
2018-12-17T10:43:42.958Z,100060.12
2018-12-17T10:46:15.569Z,100060.20
2018-12-17T10:48:48.163Z,100062.95
2018-12-17T10:51:20.941Z,100060.52
2018-12-17T10:53:53.615Z,100064.46
2018-12-17T10:56:26.205Z,100055.48
2018-12-17T10:58:58.769Z,100062.27
2018-12-17T11:01:36.940Z,100063.45
2018-12-17T11:04:15.834Z,100058.97
2018-12-17T11:06:48.732Z,100055.80
2018-12-17T11:09:21.333Z,100063.71
2018-12-17T11:14:53.130Z,100060.74
2018-12-17T11:17:25.806Z,100059.78
2018-12-17T11:19:58.395Z,100053.70
2018-12-17T11:22:31.066Z,100054.27
2018-12-17T11:25:05.568Z,100057.92
2018-12-17T11:27:38.196Z,100060.54
2018-12-17T11:30:12.945Z,100052.30
2018-12-17T11:32:46.530Z,100054.84
2018-12-17T11:35:19.382Z,100050.39
2018-12-17T11:37:52.106Z,100051.58
2018-12-17T11:40:24.815Z,100056.00
2018-12-17T11:42:57.429Z,100053.24
2018-12-17T11:45:30.479Z,100047.22
2018-12-17T11:48:03.131Z,100057.27
2018-12-17T11:50:36.911Z,100054.52
2018-12-17T11:53:13.904Z,100050.09
2018-12-17T11:56:03.735Z,100047.78
2018-12-17T11:58:36.361Z,100052.92
2018-12-17T12:01:12.011Z,100049.61
2018-12-17T12:03:46.517Z,100046.27
2018-12-17T12:06:19.560Z,100049.22
2018-12-17T12:08:53.183Z,100051.97
2018-12-17T12:11:29.002Z,100042.62
2018-12-17T12:14:01.571Z,100048.58
2018-12-17T12:16:34.715Z,100045.49
2018-12-17T12:19:07.302Z,100047.30
2018-12-17T12:21:40.256Z,100046.27
2018-12-17T12:24:14.853Z,100035.51
2018-12-17T12:26:47.682Z,100047.69
2018-12-17T12:29:20.313Z,100050.16
2018-12-17T12:31:54.512Z,100048.73
2018-12-17T12:34:27.349Z,100049.42
2018-12-17T12:36:59.914Z,100049.95
2018-12-17T12:39:32.494Z,100053.61
2018-12-17T12:42:05.169Z,100054.81
2018-12-17T12:44:38.029Z,100055.61
2018-12-17T12:47:11.995Z,100055.44
2018-12-17T12:49:44.622Z,100065.73
2018-12-17T12:52:17.328Z,100070.58
2018-12-17T12:54:50.629Z,100062.50
2018-12-17T12:57:23.243Z,100066.46
2018-12-17T12:59:58.809Z,100077.37
2018-12-17T13:02:31.372Z,100077.60
2018-12-17T13:05:04.394Z,100082.53
2018-12-17T13:07:37.811Z,100081.27
2018-12-17T13:10:10.761Z,100083.79
2018-12-17T13:12:45.524Z,100091.31
2018-12-17T13:15:19.178Z,100092.13
2018-12-17T13:17:51.792Z,100093.86
2018-12-17T13:20:24.382Z,100082.92
2018-12-17T13:22:57.580Z,100084.59
2018-12-17T13:25:35.923Z,100083.94
2018-12-17T13:28:08.539Z,100085.46
2018-12-17T13:30:41.985Z,100086.88
2018-12-17T13:33:15.400Z,100088.63
2018-12-17T13:35:47.940Z,100088.45
2018-12-17T13:38:20.551Z,100096.94
2018-12-17T13:40:53.331Z,100096.31
2018-12-17T13:43:26.025Z,100101.62
2018-12-17T13:46:01.059Z,100100.91
2018-12-17T13:48:35.681Z,100111.34
2018-12-17T13:51:14.566Z,100116.66
2018-12-17T13:53:47.180Z,100120.79
2018-12-17T13:56:19.846Z,100125.06
2018-12-17T13:58:52.426Z,100129.11
2018-12-17T14:01:25.141Z,100130.12
2018-12-17T14:04:01.452Z,100130.77
2018-12-17T14:06:34.980Z,100137.88
2018-12-17T14:09:07.787Z,100138.36
2018-12-17T14:11:43.458Z,100143.83
2018-12-17T14:14:16.077Z,100141.60
2018-12-17T14:18:23.686Z,100150.24
2018-12-17T14:21:01.909Z,100153.16
2018-12-17T14:23:34.553Z,100159.20
2018-12-17T14:26:08.620Z,100161.58
2018-12-17T14:28:41.214Z,100166.48
2018-12-17T14:31:13.888Z,100157.93
2018-12-17T14:33:46.531Z,100159.67
2018-12-17T14:36:19.145Z,100165.28
2018-12-17T14:38:51.800Z,100170.22
2018-12-17T14:41:24.784Z,100173.55
2018-12-17T14:44:06.557Z,100169.80
2018-12-17T14:46:44.668Z,100170.38
2018-12-17T14:49:19.208Z,100179.48
2018-12-17T14:51:53.028Z,100187.46
2018-12-17T14:54:26.618Z,100187.88
2018-12-17T14:56:59.286Z,100188.58
2018-12-17T14:59:34.440Z,100190.48
2018-12-17T15:02:07.355Z,100196.42
2018-12-17T15:04:41.971Z,100199.36
2018-12-17T15:07:14.618Z,100208.47
2018-12-17T15:09:48.109Z,100216.16
2018-12-17T15:12:20.653Z,100209.81
2018-12-17T15:14:55.715Z,100219.47
2018-12-17T15:17:29.584Z,100217.34
2018-12-17T15:20:02.707Z,100231.06
2018-12-17T15:22:35.470Z,100237.88
2018-12-17T15:25:09.535Z,100237.88
2018-12-17T15:27:42.474Z,100243.74
2018-12-17T15:30:15.141Z,100238.25
2018-12-17T15:32:47.991Z,100246.11
2018-12-17T15:35:20.625Z,100243.09
2018-12-17T15:37:53.281Z,100247.88
2018-12-17T15:40:26.513Z,100246.59
2018-12-17T15:42:59.145Z,100244.22
2018-12-17T15:45:32.844Z,100250.72
2018-12-17T15:48:07.117Z,100256.11
2018-12-17T15:50:40.317Z,100259.44
2018-12-17T15:53:13.188Z,100265.86
2018-12-17T15:55:45.806Z,100269.35
2018-12-17T15:58:18.499Z,100273.55
2018-12-17T16:00:51.177Z,100274.90
2018-12-17T16:03:24.767Z,100279.86
2018-12-17T16:05:57.596Z,100285.34
2018-12-17T16:08:30.362Z,100285.19
2018-12-17T16:11:05.713Z,100291.76
2018-12-17T16:13:38.370Z,100296.60
2018-12-17T16:16:10.970Z,100305.17
2018-12-17T16:18:44.170Z,100307.39
2018-12-17T16:21:17.672Z,100312.94
2018-12-17T16:23:50.580Z,100309.05
2018-12-17T16:26:24.671Z,100320.16
2018-12-17T16:28:57.905Z,100321.05
2018-12-17T16:31:30.610Z,100322.39
2018-12-17T16:34:04.265Z,100327.20
2018-12-17T16:36:37.616Z,100331.57
2018-12-17T16:39:10.376Z,100321.05
2018-12-17T16:41:42.973Z,100330.53
2018-12-17T16:44:16.362Z,100326.91
2018-12-17T16:46:49.096Z,100334.52
2018-12-17T16:49:21.703Z,100347.59
2018-12-17T16:51:54.392Z,100342.61
2018-12-17T16:54:27.329Z,100348.87
2018-12-17T16:56:59.974Z,100346.72
2018-12-17T16:59:32.653Z,100347.42
2018-12-17T17:02:05.341Z,100361.17
2018-12-17T17:04:38.002Z,100361.78
2018-12-17T17:07:10.989Z,100362.58
2018-12-17T17:09:43.707Z,100369.64
2018-12-17T17:12:17.589Z,100365.92
2018-12-17T17:14:50.637Z,100384.16
2018-12-17T17:17:24.039Z,100379.88
2018-12-17T17:19:57.655Z,100379.72
2018-12-17T17:22:31.744Z,100380.27
2018-12-17T17:25:05.780Z,100385.52
2018-12-17T17:27:39.866Z,100388.29
2018-12-17T17:30:12.657Z,100393.69
2018-12-17T17:32:46.061Z,100389.09
2018-12-17T17:35:19.679Z,100390.19
2018-12-17T17:37:52.306Z,100388.03
2018-12-17T17:40:25.561Z,100392.72
2018-12-17T17:42:58.307Z,100403.51
2018-12-17T17:45:30.957Z,100402.42
2018-12-17T17:48:05.072Z,100403.51
2018-12-17T17:50:40.033Z,100406.85
2018-12-17T17:53:13.649Z,100406.53
2018-12-17T17:55:46.657Z,100412.15
2018-12-17T17:58:19.417Z,100419.47
2018-12-17T18:00:52.018Z,100420.23
2018-12-17T18:03:24.655Z,100422.39
2018-12-17T18:05:58.305Z,100420.65
2018-12-17T18:08:31.025Z,100430.31
2018-12-17T18:11:03.650Z,100426.20
2018-12-17T18:13:36.294Z,100431.28
2018-12-17T18:16:09.269Z,100433.59
2018-12-17T18:18:43.215Z,100433.81
2018-12-17T18:21:16.520Z,100443.98
2018-12-17T18:23:49.331Z,100450.00
2018-12-17T18:26:21.978Z,100450.95
2018-12-17T18:28:54.655Z,100450.95
2018-12-17T18:31:28.471Z,100463.67
2018-12-17T18:34:01.106Z,100469.06
2018-12-17T18:36:33.798Z,100473.27
2018-12-17T18:39:07.708Z,100463.19
2018-12-17T18:41:42.415Z,100463.52
2018-12-17T18:44:15.000Z,100473.50
2018-12-17T18:46:48.731Z,100480.50
2018-12-17T18:49:21.288Z,100481.27
2018-12-17T18:51:56.647Z,100482.33
2018-12-17T18:54:29.628Z,100481.20
2018-12-17T18:57:02.591Z,100478.98
2018-12-17T18:59:35.219Z,100476.30
2018-12-17T19:02:09.375Z,100489.78
2018-12-17T19:04:44.199Z,100487.41
2018-12-17T19:07:19.744Z,100491.22
2018-12-17T19:09:52.364Z,100500.73
2018-12-17T19:12:25.745Z,100507.16
2018-12-17T19:14:58.619Z,100507.41
2018-12-17T19:17:31.214Z,100513.67
2018-12-17T19:20:05.072Z,100523.60
2018-12-17T19:22:37.867Z,100527.65
2018-12-17T19:25:10.727Z,100531.21
2018-12-17T19:27:43.505Z,100530.28
2018-12-17T19:30:17.140Z,100535.27
2018-12-17T19:32:53.050Z,100531.70
2018-12-17T19:35:32.883Z,100540.75
2018-12-17T19:38:05.671Z,100546.41
2018-12-17T19:40:38.461Z,100537.34
2018-12-17T19:43:11.209Z,100536.80
2018-12-17T19:45:45.467Z,100542.49
2018-12-17T19:48:18.341Z,100547.83
2018-12-17T19:50:55.398Z,100541.78
2018-12-17T19:53:29.722Z,100546.64
2018-12-17T19:56:02.944Z,100547.02
2018-12-17T19:58:39.895Z,100549.81
2018-12-17T20:01:15.551Z,100549.23
2018-12-17T20:03:49.074Z,100555.44
2018-12-17T20:06:21.649Z,100555.12
2018-12-17T20:08:54.311Z,100560.03
2018-12-17T20:11:30.930Z,100560.45
2018-12-17T20:14:04.242Z,100567.20
2018-12-17T22:14:23.515Z,100634.13
2018-12-17T22:16:56.106Z,100640.33
2018-12-17T22:19:28.951Z,100645.41
2018-12-17T22:22:01.684Z,100642.93
2018-12-17T22:24:34.449Z,100650.97
2018-12-17T22:27:07.058Z,100657.23
2018-12-17T22:29:40.241Z,100654.70
2018-12-17T22:32:12.970Z,100660.03
2018-12-17T22:34:45.581Z,100661.22
2018-12-17T22:37:18.275Z,100666.52
2018-12-17T22:39:50.877Z,100669.05
2018-12-17T22:42:23.678Z,100667.64
2018-12-17T22:44:56.380Z,100661.91
2018-12-17T22:47:29.142Z,100663.05
2018-12-17T22:50:03.901Z,100659.17
2018-12-17T22:52:36.738Z,100662.64
2018-12-17T22:55:09.292Z,100662.73
2018-12-17T22:57:42.050Z,100668.67
2018-12-17T23:00:14.768Z,100668.19
2018-12-17T23:02:49.329Z,100670.57
2018-12-17T23:05:22.095Z,100676.55
2018-12-17T23:07:54.687Z,100673.70
2018-12-17T23:10:44.459Z,100667.87
2018-12-17T23:13:28.548Z,100675.73
2018-12-17T23:16:12.541Z,100681.45
2018-12-17T23:18:44.019Z,100682.11
2018-12-17T23:21:18.944Z,100684.80
2018-12-17T23:23:53.558Z,100681.30
2018-12-17T23:26:26.659Z,100684.49
2018-12-17T23:28:59.388Z,100679.70
2018-12-17T23:31:31.989Z,100685.67
2018-12-17T23:34:04.936Z,100680.50
2018-12-17T23:36:37.546Z,100683.46
2018-12-17T23:39:10.261Z,100677.41
2018-12-17T23:41:43.561Z,100676.55
2018-12-17T23:44:18.276Z,100678.92
2018-12-17T23:46:50.883Z,100684.66
2018-12-17T23:49:23.451Z,100671.60
2018-12-17T23:51:56.101Z,100680.27
2018-12-17T23:54:29.262Z,100679.09
2018-12-17T23:57:01.863Z,100680.19
2018-12-17T23:59:34.472Z,100677.97
